.
WxDataArchive / Data Records for 2013-03-07
2013-03-06 March 2013 2013-03-08

Data Records for Thursday, 07 March 2013

Time	Temp	Chill	HIndex	Humid	Dewpt	 Wind 	HiWind	WindDir	Rain 	Barom 
-----	----	-----	------	-----	-----	------	------	-------	-----	----- 
00:00	31.9	31.9	31.9	81	26.7	0	1	270	0.00	30.242 
00:05	31.9	31.9	31.9	81	26.7	0	2	270	0.00	30.242 
00:10	31.9	31.9	31.9	81	26.7	0	1	270	0.00	30.242 
00:15	32.1	32.1	32.1	81	26.9	0	1	270	0.00	30.242 
00:20	32.1	32.1	32.1	81	26.9	0	1	270	0.00	30.242 
00:25	32.1	32.1	32.1	81	26.9	0	1	270	0.00	30.242 
00:30	32.2	32.2	32.2	81	27.0	0	2	270	0.00	30.239 
00:35	32.2	32.2	32.2	81	27.0	1	2	270	0.00	30.239 
00:40	32.2	32.2	32.2	81	27.0	1	2	270	0.00	30.239 
00:45	32.2	32.2	32.2	81	27.0	0	1	270	0.00	30.234 
00:50	32.2	32.2	32.2	81	27.0	1	2	270	0.00	30.234 
00:55	32.2	32.2	32.2	82	27.3	0	1	270	0.00	30.234 
01:00	32.2	32.2	32.2	82	27.3	0	2	270	0.00	30.239 
01:05	32.2	32.2	32.2	81	27.0	0	1	270	0.00	30.239 
01:10	32.2	32.2	32.2	81	27.0	0	2	270	0.00	30.239 
01:15	32.2	32.2	32.2	81	27.0	0	3	270	0.00	30.243 
01:20	32.2	32.2	32.2	81	27.0	1	2	270	0.00	30.243 
01:25	32.2	32.2	32.2	81	27.0	0	2	270	0.00	30.243 
01:30	32.2	32.2	32.2	81	27.0	1	3	270	0.00	30.245 
01:35	32.2	32.2	32.2	81	27.0	0	1	270	0.00	30.245 
01:40	32.2	32.2	32.2	81	27.0	0	1	270	0.00	30.245 
01:45	32.2	32.2	32.2	81	27.0	0	1	270	0.00	30.248 
01:50	32.2	32.2	32.2	81	27.0	0	1	270	0.00	30.248 
01:55	32.2	32.2	32.2	81	27.0	0	1	270	0.00	30.248 
02:00	32.2	32.2	32.2	81	27.0	0	1	270	0.00	30.248 
02:05	32.1	32.1	32.1	81	26.9	0	0	---	0.00	30.248 
02:10	32.1	32.1	32.1	82	27.2	0	0	---	0.00	30.248 
02:15	32.1	32.1	32.1	82	27.2	0	1	270	0.00	30.248 
02:20	32.1	32.1	32.1	82	27.2	0	1	270	0.00	30.248 
02:25	32.1	32.1	32.1	82	27.2	0	1	270	0.00	30.248 
02:30	32.1	32.1	32.1	82	27.2	0	1	270	0.00	30.247 
02:35	31.9	31.9	31.9	82	27.0	0	1	270	0.00	30.247 
02:40	31.9	31.9	31.9	82	27.0	0	1	270	0.00	30.247 
02:45	31.9	31.9	31.9	82	27.0	0	1	270	0.00	30.245 
02:50	31.9	31.9	31.9	82	27.0	0	2	270	0.00	30.245 
02:55	31.9	31.9	31.9	82	27.0	0	1	270	0.00	30.245 
03:00	31.9	31.9	31.9	82	27.0	0	1	270	0.00	30.249 
03:05	31.8	31.8	31.8	83	27.2	0	0	---	0.00	30.249 
03:10	31.8	31.8	31.8	83	27.2	0	1	270	0.00	30.249 
03:15	31.8	31.8	31.8	83	27.2	0	1	270	0.00	30.251 
03:20	31.8	31.8	31.8	83	27.2	0	1	270	0.00	30.251 
03:25	31.8	31.8	31.8	83	27.2	0	1	270	0.00	30.251 
03:30	31.8	31.8	31.8	84	27.5	0	1	270	0.00	30.250 
03:35	31.8	31.8	31.8	84	27.5	0	1	270	0.00	30.250 
03:40	31.8	31.8	31.8	84	27.5	0	2	270	0.00	30.250 
03:45	31.6	31.6	31.6	84	27.3	0	1	270	0.00	30.252 
03:50	31.6	31.6	31.6	84	27.3	0	1	270	0.00	30.252 
03:55	31.6	31.6	31.6	84	27.3	0	1	270	0.00	30.252 
04:00	31.6	31.6	31.6	84	27.3	0	2	270	0.00	30.259 
04:05	31.6	31.6	31.6	85	27.6	0	1	270	0.00	30.259 
04:10	31.6	31.6	31.6	85	27.6	0	2	270	0.00	30.259 
04:15	31.6	31.6	31.6	85	27.6	0	1	270	0.00	30.264 
04:20	31.6	31.6	31.6	85	27.6	0	2	270	0.00	30.264 
04:25	31.6	31.6	31.6	85	27.6	0	1	270	0.00	30.264 
04:30	31.6	31.6	31.6	85	27.6	0	2	270	0.00	30.270 
04:35	31.6	31.6	31.6	86	27.9	0	2	270	0.00	30.270 
04:40	31.6	31.6	31.6	86	27.9	0	1	270	0.00	30.270 
04:45	31.6	31.6	31.6	86	27.9	0	2	270	0.00	30.276 
04:50	31.6	31.6	31.6	86	27.9	1	2	270	0.00	30.276 
04:55	31.6	31.6	31.6	86	27.9	0	2	270	0.00	30.276 
05:00	31.6	31.6	31.6	86	27.9	1	2	270	0.00	30.276 
05:05	31.6	31.6	31.6	87	28.2	1	2	270	0.00	30.276 
05:10	31.8	31.8	31.8	87	28.4	1	3	270	0.00	30.276 
05:15	31.6	31.6	31.6	87	28.2	1	3	270	0.00	30.279 
05:20	31.8	31.8	31.8	87	28.4	1	2	270	0.00	30.279 
05:25	31.8	31.8	31.8	87	28.4	1	2	270	0.00	30.279 
05:30	31.8	31.8	31.8	87	28.4	0	2	270	0.00	30.286 
05:35	31.8	31.8	31.8	87	28.4	0	1	270	0.00	30.286 
05:40	31.6	31.6	31.6	88	28.5	0	1	270	0.00	30.286 
05:45	31.6	31.6	31.6	88	28.5	0	1	270	0.00	30.290 
05:50	31.6	31.6	31.6	88	28.5	0	1	270	0.00	30.290 
05:55	31.6	31.6	31.6	88	28.5	0	1	270	0.00	30.290 
06:00	31.6	31.6	31.6	88	28.5	0	1	270	0.00	30.291 
06:05	31.6	31.6	31.6	88	28.5	0	1	270	0.00	30.291 
06:10	31.6	31.6	31.6	88	28.5	0	1	270	0.00	30.291 
06:15	31.6	31.6	31.6	88	28.5	0	0	---	0.00	30.292 
06:20	31.6	31.6	31.6	88	28.5	0	2	270	0.00	30.292 
06:25	31.8	31.8	31.8	88	28.7	0	1	270	0.00	30.292 
06:30	31.8	31.8	31.8	88	28.7	0	1	270	0.00	30.295 
06:35	31.8	31.8	31.8	88	28.7	0	1	270	0.00	30.295 
06:40	31.8	31.8	31.8	88	28.7	0	1	270	0.00	30.295 
06:45	31.8	31.8	31.8	89	28.9	0	2	270	0.00	30.302 
06:50	31.8	31.8	31.8	89	28.9	0	2	270	0.00	30.302 
06:55	31.8	31.8	31.8	89	28.9	0	1	270	0.00	30.302 
07:00	31.9	31.9	31.9	89	29.0	0	2	270	0.00	30.306 
07:05	31.9	31.9	31.9	89	29.0	0	2	270	0.00	30.306 
07:10	31.9	31.9	31.9	89	29.0	0	2	270	0.00	30.306 
07:15	31.9	31.9	31.9	89	29.0	0	1	270	0.00	30.310 
07:20	31.9	31.9	31.9	89	29.0	0	2	270	0.00	30.310 
07:25	32.1	32.1	32.1	89	29.2	1	2	292	0.00	30.310 
07:30	32.1	32.1	32.1	88	29.0	0	1	292	0.00	30.310 
07:35	32.1	32.1	32.1	88	29.0	0	2	292	0.00	30.310 
07:40	32.1	32.1	32.1	88	29.0	0	2	292	0.00	30.310 
07:45	32.2	32.2	32.2	88	29.1	1	4	248	0.00	30.319 
07:50	32.2	32.2	32.2	88	29.1	1	2	270	0.00	30.319 
07:55	32.2	32.2	32.2	88	29.1	0	2	270	0.00	30.319 
08:00	32.4	32.4	32.4	88	29.3	1	4	315	0.00	30.322 
08:05	32.4	32.4	32.4	88	29.3	1	3	315	0.00	30.322 
08:10	32.5	32.5	32.5	88	29.3	1	3	315	0.00	30.322 
08:15	32.5	32.5	32.5	87	29.1	1	2	315	0.00	30.334 
08:20	32.7	32.7	32.7	87	29.3	1	3	315	0.00	30.334 
08:25	32.7	32.7	32.7	87	29.3	1	2	292	0.00	30.334 
08:30	32.8	32.8	32.8	86	29.1	1	3	292	0.00	30.341 
08:35	32.9	32.9	32.9	86	29.2	1	3	315	0.00	30.341 
08:40	33.1	33.1	33.1	86	29.4	0	2	315	0.00	30.341 
08:45	33.1	33.1	33.1	86	29.4	0	2	315	0.00	30.341 
08:50	33.2	33.2	33.2	85	29.2	0	2	315	0.00	30.341 
08:55	33.4	33.4	33.4	85	29.4	1	3	315	0.00	30.341 
09:00	33.4	33.4	33.4	84	29.1	1	3	338	0.00	30.349 
09:05	33.4	33.4	33.4	84	29.1	1	4	338	0.00	30.349 
09:10	33.5	33.5	33.5	84	29.2	1	3	315	0.00	30.349 
09:15	33.7	33.7	33.7	84	29.4	0	2	315	0.00	30.345 
09:20	33.8	33.8	33.8	84	29.5	0	2	315	0.01	30.345 
09:25	33.8	33.8	33.8	83	29.2	1	3	315	0.00	30.345 
09:30	34.0	34.0	34.0	83	29.4	1	3	0	0.00	30.351 
09:35	34.0	34.0	34.0	83	29.4	2	4	315	0.00	30.351 
09:40	34.0	34.0	34.0	83	29.4	1	4	270	0.00	30.351 
09:45	34.3	34.3	34.3	83	29.7	1	4	292	0.00	30.352 
09:50	34.3	34.3	34.3	82	29.4	1	3	0	0.00	30.352 
09:55	34.4	34.4	34.4	82	29.5	1	5	292	0.00	30.352 
10:00	34.6	34.6	34.6	82	29.7	1	3	292	0.00	30.351 
10:05	34.7	34.7	34.7	81	29.5	1	4	292	0.00	30.351 
10:10	34.9	34.9	34.9	81	29.7	1	3	270	0.01	30.351 
10:15	35.0	35.0	35.0	81	29.8	1	3	315	0.00	30.351 
10:20	35.3	35.3	35.3	80	29.8	1	3	315	0.00	30.351 
10:25	35.5	35.5	35.5	80	30.0	1	3	315	0.00	30.351 
10:30	35.5	35.5	35.5	79	29.6	1	3	315	0.01	30.352 
10:35	35.6	35.6	35.6	79	29.7	1	3	315	0.00	30.352 
10:40	35.6	35.6	35.6	78	29.4	1	3	270	0.00	30.352 
10:45	35.6	35.6	35.6	77	29.1	2	4	315	0.01	30.355 
10:50	35.8	35.8	35.8	77	29.3	1	4	338	0.00	30.355 
10:55	35.9	35.9	35.9	77	29.4	1	4	270	0.01	30.355 
11:00	35.9	35.9	35.9	76	29.1	2	4	270	0.00	30.358 
11:05	36.2	36.2	36.2	75	29.1	2	5	270	0.01	30.358 
11:10	36.3	36.3	36.3	75	29.1	1	3	270	0.00	30.358 
11:15	36.5	36.5	36.5	74	29.0	2	5	270	0.00	30.358 
11:20	36.5	36.5	36.5	72	28.3	2	5	292	0.01	30.358 
11:25	36.8	36.8	36.8	71	28.3	1	3	338	0.01	30.358 
11:30	36.8	36.8	36.8	69	27.6	2	4	338	0.00	30.356 
11:35	36.9	36.9	36.9	69	27.7	2	5	338	0.01	30.356 
11:40	37.2	37.2	37.2	68	27.6	2	5	292	0.00	30.356 
11:45	37.3	37.3	37.3	67	27.4	2	4	338	0.01	30.356 
11:50	37.3	37.3	37.3	65	26.6	2	5	315	0.00	30.356 
11:55	37.6	37.6	37.6	65	26.9	1	4	338	0.01	30.356 
12:00	37.6	37.6	37.6	65	26.9	1	3	0	0.00	30.356 
12:05	37.5	37.5	37.5	65	26.8	2	4	338	0.01	30.356 
12:10	37.3	37.3	37.3	66	27.0	1	3	338	0.00	30.356 
12:15	37.3	37.3	37.3	64	26.3	2	3	225	0.01	30.353 
12:20	37.5	37.5	37.5	62	25.7	1	3	315	0.00	30.353 
12:25	37.3	37.3	37.3	60	24.7	1	5	315	0.00	30.353 
12:30	37.6	37.6	37.6	62	25.8	1	3	292	0.01	30.356 
12:35	37.6	37.6	37.6	61	25.4	1	3	315	0.00	30.356 
12:40	37.6	37.6	37.6	62	25.8	1	5	0	0.00	30.356 
12:45	37.8	37.8	37.8	61	25.6	1	3	0	0.01	30.351 
12:50	37.8	37.8	37.8	61	25.6	2	5	292	0.00	30.351 
12:55	37.5	37.5	37.5	62	25.7	2	4	270	0.00	30.351 
13:00	37.3	37.3	37.3	63	25.9	2	4	270	0.01	30.354 
13:05	37.2	37.2	37.2	63	25.8	2	4	315	0.00	30.354 
13:10	37.2	37.2	37.2	62	25.4	1	3	292	0.00	30.354 
13:15	37.3	37.3	37.3	62	25.5	1	4	292	0.00	30.351 
13:20	37.5	37.5	37.5	61	25.3	1	4	338	0.01	30.351 
13:25	37.6	37.6	37.6	60	25.0	1	4	338	0.00	30.351 
13:30	37.8	37.8	37.8	60	25.2	2	5	315	0.00	30.349 
13:35	37.6	37.6	37.6	60	25.0	1	4	292	0.01	30.349 
13:40	37.3	37.3	37.3	59	24.3	1	3	0	0.00	30.349 
13:45	37.2	37.2	37.2	59	24.2	1	5	292	0.00	30.347 
13:50	37.3	37.3	37.3	60	24.7	0	2	292	0.00	30.347 
13:55	37.6	37.6	37.6	59	24.6	0	3	292	0.00	30.347 
14:00	37.5	37.5	37.5	58	24.1	1	4	315	0.01	30.342 
14:05	37.3	37.3	37.3	58	23.9	1	4	315	0.00	30.342 
14:10	37.2	37.2	37.2	58	23.8	1	4	315	0.00	30.342 
14:15	37.0	37.0	37.0	58	23.6	1	3	315	0.00	30.340 
14:20	37.0	37.0	37.0	58	23.6	1	3	315	0.00	30.340 
14:25	37.0	37.0	37.0	57	23.2	1	4	338	0.00	30.340 
14:30	37.0	37.0	37.0	56	22.8	1	4	315	0.00	30.347 
14:35	37.2	37.2	37.2	55	22.5	2	4	338	0.00	30.347 
14:40	37.2	37.2	37.2	55	22.5	1	5	315	0.00	30.347 
14:45	37.3	37.3	37.3	55	22.6	1	2	315	0.00	30.348 
14:50	37.5	37.5	37.5	54	22.4	1	3	270	0.01	30.348 
14:55	37.5	37.5	37.5	54	22.4	0	2	270	0.00	30.348 
15:00	37.6	37.6	37.6	53	22.0	1	4	292	0.00	30.349 
15:05	37.6	37.6	37.6	53	22.0	1	5	248	0.00	30.349 
15:10	37.6	37.6	37.6	53	22.0	1	3	315	0.00	30.349 
15:15	37.8	37.8	37.8	52	21.8	1	4	248	0.00	30.352 
15:20	37.6	37.6	37.6	52	21.6	1	3	338	0.00	30.352 
15:25	37.6	37.6	37.6	52	21.6	2	5	248	0.00	30.352 
15:30	37.5	37.5	37.5	51	21.0	2	5	315	0.00	30.352 
15:35	37.2	37.2	37.2	52	21.2	1	4	0	0.00	30.352 
15:40	37.2	37.2	37.2	51	20.8	1	3	292	0.00	30.352 
15:45	37.2	37.2	37.2	50	20.3	2	5	0	0.00	30.357 
15:50	37.3	37.3	37.3	51	20.9	2	4	270	0.00	30.357 
15:55	37.0	37.0	37.0	50	20.1	2	5	270	0.00	30.357 
16:00	36.6	36.6	36.6	50	19.7	1	5	315	0.00	30.363 
16:05	36.9	36.9	36.9	52	20.9	1	3	315	0.00	30.363 
16:10	37.6	37.6	37.6	50	20.7	1	4	248	0.00	30.363 
16:15	37.6	37.6	37.6	49	20.2	1	3	338	0.00	30.361 
16:20	37.8	37.8	37.8	50	20.8	1	5	248	0.01	30.361 
16:25	37.8	37.8	37.8	49	20.4	2	4	338	0.00	30.361 
16:30	37.6	37.6	37.6	50	20.7	1	4	292	0.00	30.354 
16:35	37.8	37.8	37.8	50	20.8	1	3	315	0.00	30.354 
16:40	37.5	37.5	37.5	49	20.1	2	5	292	0.00	30.354 
16:45	37.5	37.5	37.5	50	20.6	2	5	292	0.00	30.359 
16:50	37.0	37.0	37.0	49	19.6	3	5	315	0.00	30.359 
16:55	36.6	36.6	36.6	51	20.2	1	5	315	0.00	30.359 
17:00	36.3	36.3	36.3	51	19.9	1	3	292	0.00	30.362 
17:05	36.2	36.2	36.2	52	20.3	1	3	270	0.00	30.362 
17:10	36.2	36.2	36.2	51	19.8	1	4	292	0.00	30.362 
17:15	36.0	36.0	36.0	52	20.1	0	3	292	0.00	30.362 
17:20	36.0	36.0	36.0	52	20.1	0	2	292	0.00	30.362 
17:25	36.0	36.0	36.0	53	20.5	0	1	292	0.00	30.362 
17:30	36.0	36.0	36.0	53	20.5	1	4	270	0.00	30.366 
17:35	36.0	36.0	36.0	52	20.1	0	2	270	0.00	30.366 
17:40	35.9	35.9	35.9	53	20.5	0	2	270	0.00	30.366 
17:45	35.9	35.9	35.9	52	20.0	0	2	270	0.00	30.368 
17:50	35.9	35.9	35.9	53	20.5	0	1	270	0.00	30.368 
17:55	35.9	35.9	35.9	52	20.0	0	2	270	0.00	30.368 
18:00	35.9	35.9	35.9	53	20.5	0	1	270	0.00	30.377 
18:05	35.8	35.8	35.8	53	20.4	0	1	270	0.00	30.377 
18:10	35.8	35.8	35.8	53	20.4	0	1	270	0.00	30.377 
18:15	35.8	35.8	35.8	54	20.8	0	1	270	0.00	30.378 
18:20	35.6	35.6	35.6	53	20.2	0	2	270	0.00	30.378 
18:25	35.6	35.6	35.6	54	20.6	0	1	270	0.00	30.378 
18:30	35.5	35.5	35.5	54	20.5	0	1	270	0.00	30.383 
18:35	35.5	35.5	35.5	54	20.5	0	2	270	0.00	30.383 
18:40	35.3	35.3	35.3	54	20.3	0	2	270	0.00	30.383 
18:45	35.3	35.3	35.3	54	20.3	0	1	270	0.00	30.391 
18:50	35.3	35.3	35.3	55	20.8	0	2	270	0.00	30.391 
18:55	35.2	35.2	35.2	56	21.1	0	1	270	0.00	30.391 
19:00	35.2	35.2	35.2	56	21.1	0	2	270	0.00	30.393 
19:05	35.0	35.0	35.0	56	20.9	0	1	270	0.00	30.393 
19:10	35.0	35.0	35.0	57	21.3	0	1	270	0.00	30.393 
19:15	35.0	35.0	35.0	56	20.9	1	2	270	0.00	30.392 
19:20	34.9	34.9	34.9	56	20.8	0	2	270	0.00	30.392 
19:25	34.9	34.9	34.9	56	20.8	1	3	292	0.00	30.392 
19:30	34.9	34.9	34.9	56	20.8	0	2	315	0.00	30.400 
19:35	34.9	34.9	34.9	56	20.8	0	1	315	0.00	30.400 
19:40	34.9	34.9	34.9	57	21.2	0	1	315	0.00	30.400 
19:45	34.7	34.7	34.7	57	21.0	0	1	315	0.00	30.397 
19:50	34.7	34.7	34.7	58	21.5	0	1	315	0.00	30.397 
19:55	34.6	34.6	34.6	58	21.4	0	1	315	0.00	30.397 
20:00	34.4	34.4	34.4	58	21.2	0	1	315	0.00	30.400 
20:05	34.4	34.4	34.4	58	21.2	0	0	---	0.00	30.400 
20:10	34.4	34.4	34.4	58	21.2	0	0	---	0.00	30.400 
20:15	34.3	34.3	34.3	57	20.7	0	1	315	0.00	30.400 
20:20	34.3	34.3	34.3	58	21.1	0	1	315	0.00	30.400 
20:25	34.1	34.1	34.1	58	20.9	0	1	315	0.00	30.400 
20:30	34.1	34.1	34.1	57	20.5	0	2	315	0.00	30.402 
20:35	34.0	34.0	34.0	57	20.4	0	1	315	0.00	30.402 
20:40	34.0	34.0	34.0	56	20.0	0	1	315	0.00	30.402 
20:45	34.0	34.0	34.0	56	20.0	0	1	315	0.00	30.401 
20:50	34.0	34.0	34.0	56	20.0	0	1	315	0.00	30.401 
20:55	33.8	33.8	33.8	56	19.8	0	1	315	0.00	30.401 
21:00	33.8	33.8	33.8	56	19.8	0	1	315	0.00	30.401 
21:05	33.7	33.7	33.7	55	19.3	0	1	315	0.00	30.401 
21:10	33.7	33.7	33.7	56	19.7	0	0	---	0.00	30.401 
21:15	33.5	33.5	33.5	57	19.9	0	0	---	0.00	30.400 
21:20	33.4	33.4	33.4	58	20.2	0	0	---	0.00	30.400 
21:25	33.4	33.4	33.4	58	20.2	0	0	---	0.00	30.400 
21:30	33.4	33.4	33.4	59	20.6	0	1	315	0.00	30.398 
21:35	33.2	33.2	33.2	60	20.8	0	1	315	0.00	30.398 
21:40	33.2	33.2	33.2	60	20.8	0	0	---	0.00	30.398 
21:45	33.2	33.2	33.2	61	21.2	0	1	315	0.00	30.397 
21:50	33.2	33.2	33.2	62	21.6	0	0	---	0.00	30.397 
21:55	33.2	33.2	33.2	63	22.0	0	0	---	0.00	30.397 
22:00	33.2	33.2	33.2	65	22.7	0	2	315	0.00	30.399 
22:05	33.2	33.2	33.2	65	22.7	0	0	---	0.00	30.399 
22:10	33.2	33.2	33.2	66	23.1	0	0	---	0.00	30.399 
22:15	33.1	33.1	33.1	66	23.0	0	0	---	0.00	30.398 
22:20	33.1	33.1	33.1	66	23.0	0	0	---	0.00	30.398 
22:25	33.1	33.1	33.1	67	23.4	0	1	315	0.00	30.398 
22:30	33.1	33.1	33.1	67	23.4	0	1	315	0.00	30.398 
22:35	33.1	33.1	33.1	68	23.7	0	0	---	0.00	30.398 
22:40	32.9	32.9	32.9	69	23.9	0	1	315	0.00	30.398 
22:45	32.9	32.9	32.9	69	23.9	0	0	---	0.00	30.399 
22:50	32.9	32.9	32.9	70	24.2	0	0	---	0.00	30.399 
22:55	32.9	32.9	32.9	71	24.5	0	0	---	0.00	30.399 
23:00	32.9	32.9	32.9	71	24.5	0	0	---	0.00	30.401 
23:05	32.9	32.9	32.9	71	24.5	0	0	---	0.00	30.401 
23:10	32.8	32.8	32.8	72	24.8	0	0	---	0.00	30.401 
23:15	32.8	32.8	32.8	72	24.8	0	1	315	0.00	30.401 
23:20	32.8	32.8	32.8	73	25.1	0	0	---	0.00	30.401 
23:25	32.8	32.8	32.8	73	25.1	0	0	---	0.00	30.401 
23:30	32.7	32.7	32.7	73	25.0	0	0	---	0.00	30.403 
23:35	32.7	32.7	32.7	73	25.0	0	0	---	0.00	30.403 
23:40	32.7	32.7	32.7	73	25.0	0	0	---	0.00	30.403 
23:45	32.5	32.5	32.5	74	25.2	0	1	315	0.00	30.400 
23:50	32.5	32.5	32.5	74	25.2	0	0	---	0.00	30.400 
23:55	32.4	32.4	32.4	74	25.1	0	0	---	0.00	30.400 

CoCoRaHS
IN-AL-39
A2 Web Hosting
Creative Commons License
GoDaddy
search engine by freefind advanced

loaded 2018-11-19 10:51:15 • last modified 2010-11-18 10:43:29
Privacy PolicyDisclaimer
• wx.awcolley.com is powered by PmWiki v.2002016 •
• all content (unless otherwise noted) © 2018 A W Colley